Airfield :
LOGIN :

Register | Disclaimer

   EN    FR    IT 

 










Legend :    VFR   Marginal VFR   IFR   Intensive IFR   Very Intensive IFR
Visi :
Ceiling :
>= 8 km
>= 3000ft
5 to 8 km
1000 to 3000 ft
1500m to 5 km
500 to 1000 ft
800 to 1500m
200 to 500 ft
< 800m
< 200 ft
Symbols :   Thunderstorms  Fog  Heavy snow  Heavy precipitations  Wind > 20 kt
SIGMETs :     Misc.  Thunderstorms  Icing  Turbulence  Mountain Waves  Volcanic Ashes







- Airport Elevation : 459 ft
- IATA code : CER
- Download approach charts


LFRC - Cherbourg / Maupertus

CURRENT METAR :
  • 181830Z AUTO 24009KT 9999 BKN012 OVC190 07/06 Q1017 TEMPO SHRA BKN015

EXPIRED METARs :
  • 181800Z AUTO 22009KT 9999 FEW013 SCT150 BKN190 07/06 Q1017 TEMPO SHRA
  • 181730Z AUTO 22007KT 9999 FEW013 SCT120 BKN160 07/06 Q1016 TEMPO SHRA
  • 181700Z AUTO 22010KT CAVOK 08/06 Q1016 TEMPO SHRA
  • 181630Z AUTO 22010KT 9999 FEW014 OVC100 08/06 Q1016 TEMPO SHRA
  • 181600Z AUTO 22006KT 9999 FEW011 SCT022 BKN038 08/07 Q1016 TEMPO RA

TAF AMD TAF LFRC
Valid from the 18 at 15:00 until the 19 at 00:00 UTC


181534Z 1815/1824 24008KT 9999 SCT030
TEMPO 1815/1818 5000 RA BKN015
TEMPO 1818/1821 5000 SHRA BKN015
No reported NOTAMs for that airfield.
1 SIGMET reported for the Brest FIR (LFRR) :
 
Severe turbulence
LFRR SIGMET 1 VALID 181830/182100 LFPW
LFRR BREST FIR/UIR SEV TURB FCST WI N4430 W00545 - N4500 W00800 - N4745 W00630 - N4715 W00445 - N4430 W00545 FL180/280 MOV E 20KT NC=



MET'MAP, your aeronautical weather chart ! - Copyright ORBIFLY December 2007 - Disclaimer

ORBIFLY MET'MAP TEAM :

Programming & Development : Alexandra Zaïnal
Concept & Development : Baudouin d'Aumeries
Co-Development & Prog : Marc-Olivier Méhu
Technical & hardware support : Manuel Goepfert

Contact : metmap@orbifly.com




SOURCES & CREDITS :

   NOAA